Wautoma, WI (54982)

7:46 PM CDT on April 24, 2015 (GMT -0500)
RAWS | | Change Station
CLOSE
Current Station
Personal Weather Station
Location: Wautoma, WI
Elevation: 856 ft
Nearby Weather Stations

Elev 856 ft 44.06 °N, 89.29 °W | Updated 34 minutes ago

Overcast
Overcast
44 °F
Feels Like 42 °F
N
4
Wind Variable Wind from SE
Gusts 21.0 mph

Today
High -- | Low -- °F
--% Chance of Precip.
Yesterday
High -- | Low -- °F
Precip. -- in
5:59 AM 7:51 PM
Waxing Crescent, 40% visible
Pressure 29.95 in
Visibility 3.0 miles
Clouds Few 1600 ft
Scattered Clouds 2400 ft
Mostly Cloudy 3300 ft
Windchill 42 °F
Dew Point 39 °F
Humidity 81%
Rainfall in
Snow Depth Not available.
UV 0 out of 12
Pollen 8.80 out of 12
Air Quality Not available.
Flu Activity Local Activity
SPECI KY50 250007Z AUTO 13008KT 3SM -RA FEW016 SCT024 BKN033 07/03 A2995 RMK AO2 TSNO P0001

More Conditions Fewer Conditions

Pressure 29.95 in
Visibility 3.0 miles
Clouds Few 1600 ft
Scattered Clouds 2400 ft
Mostly Cloudy 3300 ft
Windchill 42 °F
Dew Point 39 °F
Humidity 81%
Rainfall in
Snow Depth Not available.
UV 0 out of 12
Pollen 8.80 out of 12
Air Quality Not available.
Flu Activity Local Activity
SPECI KY50 250007Z AUTO 13008KT 3SM -RA FEW016 SCT024 BKN033 07/03 A2995 RMK AO2 TSNO P0001

More Conditions Fewer Conditions

10-Day Weather Forecast

Almanac

Astronomy

Apr. 24, 2015 Rise Set
Actual Time
Civil Twilight
Nautical Twilight
Astronomical Twilight
Moon
Length of Visible Light
Length of Day
Tomorrow will be .
, % of the Moon is Illuminated

Today's Extremes

State Highs State Lows

Community

WunderPhotos

Upload Photos

1,816,526 photos uploaded!

WunderBlogs® & News

Nearby

Air Quality

  Air Quality AQ Index Pollutant
Not available.

Snow Depth

Station Depth Elevation

Earthquake Activity

City Distance Mag. Time & Date
Minimum magnitude displayed is 2.5.

Coastal Water Temperatures

Place Temperature

Stations

Nearby Weather Stations

Station Location Temp. Windchill Dew Point Humidity Wind Precip. Elev Updated Type